Time;durP1;ratioP1;P1;durP2;ratioP2;P2;SDS_P1;SDS_P2;PMS_P1;PMS_P2;Temp;Humidity;BMP_temperature;BMP_pressure;BME280_temperature;BME280_humidity;BME280_pressure;Samples;Min_cycle;Max_cycle;Signal;HPM_P1;HPM_P2
2022/04/07 00:02:06;;;;;;;35.28;4.93;;;;;;;9.12;88.06;98933.09;5094571;28;20028;-37
2022/04/07 00:04:32;;;;;;;29.92;4.10;;;;;;;9.13;88.01;98942.78;5094569;28;20044;-35
2022/04/07 00:06:57;;;;;;;34.05;3.35;;;;;;;9.17;87.59;98933.25;5094780;28;20053;-37
2022/04/07 00:09:22;;;;;;;31.60;4.53;;;;;;;9.20;86.95;98935.50;5094482;28;20012;-37
2022/04/07 00:11:48;;;;;;;38.35;4.13;;;;;;;9.20;86.71;98925.59;5094189;28;20044;-37
2022/04/07 00:14:13;;;;;;;29.63;4.78;;;;;;;9.21;87.10;98924.53;5094904;28;20074;-35
2022/04/07 00:16:38;;;;;;;34.60;4.78;;;;;;;9.22;87.00;98922.69;5101705;28;20049;-38
2022/04/07 00:19:05;;;;;;;39.17;4.85;;;;;;;9.23;86.74;98918.94;5098198;28;20111;-38
2022/04/07 00:21:38;;;;;;;25.50;3.63;;;;;;;9.22;86.86;98920.00;5102403;28;20044;-37
2022/04/07 00:24:05;;;;;;;30.23;3.85;;;;;;;9.25;86.75;98914.19;5098040;28;20124;-34
2022/04/07 00:26:30;;;;;;;37.38;4.63;;;;;;;9.23;86.88;98897.47;5098096;28;20079;-36
2022/04/07 00:28:56;;;;;;;34.13;4.50;;;;;;;9.21;86.96;98896.88;5098251;28;20029;-39
2022/04/07 00:31:21;;;;;;;33.55;4.25;;;;;;;9.22;87.39;98901.22;5099622;28;20039;-37
2022/04/07 00:33:46;;;;;;;48.03;6.30;;;;;;;9.19;87.25;98915.91;5105496;28;20036;-36
2022/04/07 00:36:11;;;;;;;37.08;4.15;;;;;;;9.19;86.44;98896.28;5098115;28;20056;-37
2022/04/07 00:38:37;;;;;;;30.48;4.15;;;;;;;9.19;86.65;98901.66;5097971;28;20044;-36
2022/04/07 00:41:02;;;;;;;31.98;4.15;;;;;;;9.19;86.07;98877.50;5097695;28;20021;-38
2022/04/07 00:43:36;;;;;;;27.98;4.93;;;;;;;9.18;86.04;98865.13;5098346;28;20103;-35
2022/04/07 00:46:02;;;;;;;33.70;3.95;;;;;;;9.19;85.62;98874.81;5097653;28;20080;-36
2022/04/07 00:48:27;;;;;;;43.28;4.82;;;;;;;9.24;84.49;98861.53;5080127;28;20062;-36
2022/04/07 00:50:54;;;;;;;46.55;4.78;;;;;;;9.25;84.70;98847.09;5079698;28;20040;-35
2022/04/07 00:53:19;;;;;;;30.05;3.90;;;;;;;9.25;85.17;98841.72;5080328;28;20055;-35
2022/04/07 00:55:45;;;;;;;46.17;4.45;;;;;;;9.23;85.56;98841.13;5098572;28;20072;-37
2022/04/07 00:58:10;;;;;;;34.35;5.00;;;;;;;9.24;86.02;98826.63;5097703;28;20046;-35
2022/04/07 01:00:36;;;;;;;47.95;6.18;;;;;;;9.25;85.77;98841.72;5091509;28;20023;-36
2022/04/07 01:03:01;;;;;;;43.85;4.38;;;;;;;9.26;85.57;98821.06;5098994;28;20028;-36
2022/04/07 01:05:26;;;;;;;35.78;4.57;;;;;;;9.26;86.04;98815.69;5104285;28;20024;-37
2022/04/07 01:07:52;;;;;;;36.17;4.70;;;;;;;9.27;86.14;98825.38;5101158;28;20016;-35
2022/04/07 01:10:19;;;;;;;43.58;5.13;;;;;;;9.24;86.33;98805.16;5102105;28;20032;-34
2022/04/07 01:12:44;;;;;;;46.70;5.78;;;;;;;9.24;87.10;98797.13;5116002;28;20034;-35
2022/04/07 01:15:10;;;;;;;42.38;5.72;;;;;;;9.17;88.33;98816.00;5113128;28;20024;-36
2022/04/07 01:17:35;;;;;;;42.85;4.60;;;;;;;9.09;89.95;98812.78;5087570;28;20084;-36
2022/04/07 01:20:05;;;;;;;55.00;5.13;;;;;;;8.99;91.42;98783.75;5106982;28;20028;-35
2022/04/07 01:22:30;;;;;;;62.75;5.78;;;;;;;8.91;92.61;98792.09;5109463;28;20016;-34
2022/04/07 01:24:56;;;;;;;54.22;5.40;;;;;;;8.79;93.28;98771.38;5096283;28;20025;-36
2022/04/07 01:27:24;;;;;;;47.15;6.07;;;;;;;8.75;93.44;98761.31;5077567;28;20017;-34
2022/04/07 01:29:51;;;;;;;61.42;7.15;;;;;;;8.77;92.47;98756.56;5085993;28;20081;-41
2022/04/07 01:32:23;;;;;;;49.45;5.35;;;;;;;8.75;93.33;98753.25;5092839;28;20029;-40
2022/04/07 01:34:50;;;;;;;48.38;5.50;;;;;;;8.78;92.55;98750.94;5084816;28;20096;-42
2022/04/07 01:37:16;;;;;;;48.88;5.47;;;;;;;8.79;92.11;98744.56;5067905;28;20017;-39
2022/04/07 01:39:43;;;;;;;50.00;4.78;;;;;;;8.78;92.95;98734.03;5093764;28;20035;-40
2022/04/07 01:42:10;;;;;;;53.17;5.47;;;;;;;8.74;93.43;98760.50;5076225;28;20019;-40
2022/04/07 01:44:39;;;;;;;46.28;6.32;;;;;;;8.72;93.22;98716.97;5104957;28;20055;-39
2022/04/07 01:47:05;;;;;;;48.80;5.43;;;;;;;8.70;93.62;98747.75;5111555;28;20309;-38
2022/04/07 01:49:34;;;;;;;55.53;6.65;;;;;;;8.66;94.35;98706.31;5068683;28;20036;-39
2022/04/07 01:51:59;;;;;;;;;;;;;;;8.68;93.80;98698.88;5101442;28;20055;-38
2022/04/07 01:54:25;;;;;;;49.95;5.45;;;;;;;8.69;93.86;98714.75;5103720;28;19919;-38
2022/04/07 01:56:51;;;;;;;49.67;5.97;;;;;;;8.76;92.74;98725.41;5074154;28;20050;-40
2022/04/07 01:59:17;;;;;;;66.55;5.30;;;;;;;8.86;91.19;98714.97;5080419;28;20032;-36
2022/04/07 02:01:42;;;;;;;47.50;5.80;;;;;;;8.91;90.84;98717.81;5088861;28;20028;-39
2022/04/07 02:04:07;;;;;;;59.45;6.45;;;;;;;8.95;90.38;98737.78;5110986;28;20024;-35
2022/04/07 02:06:33;;;;;;;51.47;6.57;;;;;;;9.00;89.40;98697.69;5097999;28;20024;-36
2022/04/07 02:08:59;;;;;;;63.83;6.80;;;;;;;9.03;89.19;98704.47;5094391;28;20043;-39
2022/04/07 02:11:24;;;;;;;46.90;7.00;;;;;;;9.01;89.19;98690.47;5102461;28;20093;-36
2022/04/07 02:13:50;;;;;;;73.82;6.60;;;;;;;9.02;88.54;98679.50;5107602;28;20028;-36
2022/04/07 02:16:15;;;;;;;60.92;7.65;;;;;;;9.02;88.69;98698.28;5098483;28;20268;-37
2022/04/07 02:18:41;;;;;;;66.97;6.90;;;;;;;9.04;88.17;98679.28;5111559;28;20110;-35
2022/04/07 02:21:06;;;;;;;60.20;7.55;;;;;;;9.04;88.49;98684.66;5109619;28;20028;-35
2022/04/07 02:23:34;;;;;;;89.75;8.98;;;;;;;9.07;87.93;98669.97;5100867;28;20754;-36
2022/04/07 02:26:00;;;;;;;56.33;6.93;;;;;;;9.10;87.25;98666.81;5094679;28;20027;-38
2022/04/07 02:28:25;;;;;;;56.78;6.25;;;;;;;9.08;87.17;98660.84;5096019;28;20084;-37
2022/04/07 02:30:50;;;;;;;67.28;7.45;;;;;;;9.07;87.56;98657.34;5104367;28;20055;-39
2022/04/07 02:33:16;;;;;;;45.60;5.25;;;;;;;9.08;87.15;98663.53;5099410;28;20016;-40
2022/04/07 02:35:41;;;;;;;57.63;7.35;;;;;;;9.09;87.34;98654.47;5095705;28;20983;-39
2022/04/07 02:38:06;;;;;;;50.85;6.13;;;;;;;9.09;87.60;98646.41;5095000;28;20035;-38
2022/04/07 02:40:32;;;;;;;56.03;6.13;;;;;;;9.08;87.24;98647.44;5095906;28;20048;-39
2022/04/07 02:42:57;;;;;;;80.38;6.32;;;;;;;9.09;87.42;98627.63;5095638;28;20028;-38
2022/04/07 02:45:22;;;;;;;48.65;6.47;;;;;;;9.09;87.03;98600.78;5095593;28;20063;-38
2022/04/07 02:47:48;;;;;;;51.97;5.70;;;;;;;9.08;87.74;98609.88;5095315;28;20024;-37
2022/04/07 02:50:13;;;;;;;61.20;6.90;;;;;;;8.99;88.48;98607.50;5096411;28;20043;-37
2022/04/07 02:52:38;;;;;;;55.20;6.97;;;;;;;8.99;88.09;98617.44;5111371;28;20027;-39
2022/04/07 02:55:05;;;;;;;58.03;6.30;;;;;;;9.04;87.29;98628.31;5093569;28;20060;-39
2022/04/07 02:57:31;;;;;;;50.80;6.35;;;;;;;9.06;87.06;98577.06;5098715;28;20024;-39
2022/04/07 02:59:59;;;;;;;53.28;6.43;;;;;;;9.05;86.73;98573.56;5100899;28;20090;-39
2022/04/07 03:02:24;;;;;;;;;;;;;;;9.07;86.22;98584.91;5107028;28;20416;-37
2022/04/07 03:04:50;;;;;;;42.67;5.13;;;;;;;9.10;85.95;98560.31;5091848;28;19924;-39
2022/04/07 03:07:15;;;;;;;40.00;5.55;;;;;;;9.15;85.55;98570.34;5094735;28;20032;-37
2022/04/07 03:09:40;;;;;;;40.45;6.22;;;;;;;9.13;85.42;98573.25;5098954;28;20039;-38
2022/04/07 03:12:07;;;;;;;35.28;4.05;;;;;;;9.15;85.36;98573.03;5115353;28;20031;-37
2022/04/07 03:14:32;;;;;;;40.10;5.72;;;;;;;9.15;85.12;98562.31;5106712;28;20098;-39
2022/04/07 03:16:58;;;;;;;43.80;5.13;;;;;;;9.13;85.98;98569.75;5095658;28;20040;-37
2022/04/07 03:19:23;;;;;;;39.30;5.13;;;;;;;9.12;85.85;98534.06;5096693;28;20036;-39
2022/04/07 03:21:49;;;;;;;39.28;5.05;;;;;;;9.10;85.82;98522.72;5097617;28;20028;-38
2022/04/07 03:24:14;;;;;;;38.10;4.97;;;;;;;9.10;86.68;98512.00;5113744;28;20087;-38
2022/04/07 03:26:39;;;;;;;47.83;6.30;;;;;;;9.04;87.64;98536.25;5106186;28;20024;-39
2022/04/07 03:29:05;;;;;;;24.05;4.13;;;;;;;8.86;90.59;98481.59;5108302;28;20027;-36
2022/04/07 03:31:31;;;;;;;36.63;4.53;;;;;;;8.70;91.65;98491.13;5077232;28;20040;-40
2022/04/07 03:33:56;;;;;;;48.20;4.38;;;;;;;8.57;93.11;98473.34;5092033;28;20032;-36
2022/04/07 03:36:21;;;;;;;35.17;4.55;;;;;;;8.48;94.18;98471.22;5087619;28;20135;-39
2022/04/07 03:38:48;;;;;;;49.55;5.43;;;;;;;8.47;94.19;98453.47;5083393;28;20032;-40
2022/04/07 03:41:14;;;;;;;53.43;5.53;;;;;;;8.43;94.59;98453.13;5083617;28;20031;-39
2022/04/07 03:43:42;;;;;;;45.20;4.95;;;;;;;8.42;94.26;98440.75;5089248;28;20020;-37
2022/04/07 03:46:07;;;;;;;39.28;4.57;;;;;;;8.46;93.63;98422.38;5085553;28;20096;-41
2022/04/07 03:48:33;;;;;;;36.05;4.97;;;;;;;8.47;93.26;98406.03;5092731;28;20017;-38
2022/04/07 03:50:58;;;;;;;28.40;3.55;;;;;;;8.47;93.34;98411.41;5097023;28;20068;-38
2022/04/07 03:53:24;;;;;;;38.33;3.67;;;;;;;8.51;92.80;98395.72;5098099;28;20122;-36
2022/04/07 03:55:49;;;;;;;32.90;4.60;;;;;;;8.51;92.58;98407.25;5096265;28;20660;-36
2022/04/07 03:58:14;;;;;;;31.80;3.50;;;;;;;8.55;92.70;98397.69;5097513;28;20036;-38
2022/04/07 04:00:40;;;;;;;34.67;4.85;;;;;;;8.55;92.24;98378.09;5095492;28;20020;-37
2022/04/07 04:03:05;;;;;;;30.08;3.75;;;;;;;8.51;92.54;98433.22;5096039;28;20079;-37
2022/04/07 04:05:30;;;;;;;34.67;3.88;;;;;;;8.45;93.28;98364.44;5086830;28;20154;-44
2022/04/07 04:07:56;;;;;;;30.52;3.92;;;;;;;8.38;93.28;98343.06;5097366;28;20054;-46
2022/04/07 04:10:23;;;;;;;23.70;3.60;;;;;;;8.36;93.89;98339.81;5096181;28;20028;-44
2022/04/07 04:12:48;;;;;;;20.33;2.78;;;;;;;8.34;93.90;98352.59;5109056;28;20035;-41
2022/04/07 04:15:14;;;;;;;21.17;3.00;;;;;;;8.28;94.38;98342.81;5112459;28;20013;-45
2022/04/07 04:17:39;;;;;;;30.98;3.38;;;;;;;8.24;94.81;98317.50;5098243;28;20084;-43
2022/04/07 04:20:05;;;;;;;39.58;3.90;;;;;;;8.22;95.21;98324.97;5102373;28;20032;-46
2022/04/07 04:22:30;;;;;;;24.73;3.47;;;;;;;8.21;94.88;98293.84;5113304;28;20028;-45
2022/04/07 04:24:55;;;;;;;29.83;3.28;;;;;;;8.23;94.65;98276.50;5117066;28;20031;-42
2022/04/07 04:27:21;;;;;;;29.42;3.22;;;;;;;8.27;94.27;98290.28;5092854;28;20044;-41
2022/04/07 04:29:46;;;;;;;25.13;3.28;;;;;;;8.30;93.54;98276.41;5099400;28;20037;-40
2022/04/07 04:32:12;;;;;;;27.33;3.35;;;;;;;8.34;93.41;98282.94;5100963;28;20036;-37
2022/04/07 04:34:37;;;;;;;27.42;3.42;;;;;;;8.30;94.13;98254.97;5111295;28;20092;-38
2022/04/07 04:37:03;;;;;;;32.20;3.13;;;;;;;8.26;94.28;98269.88;5111851;28;20031;-39
2022/04/07 04:39:28;;;;;;;21.25;2.90;;;;;;;8.21;94.69;98264.38;5108991;28;20043;-43
2022/04/07 04:41:53;;;;;;;20.40;3.15;;;;;;;8.20;94.66;98250.16;5098242;28;20024;-38
2022/04/07 04:44:19;;;;;;;24.67;2.80;;;;;;;8.17;95.56;98274.75;5112783;28;20070;-40
2022/04/07 04:46:44;;;;;;;24.10;3.22;;;;;;;8.16;95.69;98240.13;5097290;28;20047;-40
2022/04/07 04:49:09;;;;;;;27.25;3.13;;;;;;;8.15;95.87;98223.25;5105324;28;20028;-41
2022/04/07 04:51:35;;;;;;;23.75;2.72;;;;;;;8.13;96.04;98250.25;5109029;28;20063;-42
2022/04/07 04:54:00;;;;;;;19.70;2.75;;;;;;;8.08;97.00;98231.41;5097349;28;20028;-42
2022/04/07 04:56:27;;;;;;;21.13;2.80;;;;;;;7.99;97.52;98208.66;5095127;28;20051;-48
2022/04/07 04:58:53;;;;;;;27.75;3.08;;;;;;;7.94;98.47;98221.91;5094696;28;20032;-48
2022/04/07 05:01:18;;;;;;;26.40;2.60;;;;;;;7.94;98.84;98245.22;5096458;28;20262;-44
2022/04/07 05:03:43;;;;;;;15.60;2.00;;;;;;;7.93;99.40;98232.88;5105515;28;20078;-47
2022/04/07 05:06:09;;;;;;;19.52;2.60;;;;;;;7.90;99.03;98242.19;5098249;28;20069;-47
2022/04/07 05:08:34;;;;;;;14.60;2.55;;;;;;;7.91;99.59;98300.06;5093461;28;20033;-47
2022/04/07 05:10:59;;;;;;;24.48;2.53;;;;;;;7.51;99.26;98343.38;5090895;28;20031;-45
2022/04/07 05:13:24;;;;;;;10.55;1.50;;;;;;;6.56;95.80;98335.66;5090124;28;20039;-35
2022/04/07 05:15:50;;;;;;;21.10;1.90;;;;;;;5.67;93.36;98348.06;5082576;28;20071;-38
2022/04/07 05:18:15;;;;;;;22.20;2.10;;;;;;;5.25;94.72;98368.91;5081125;28;20021;-40
2022/04/07 05:20:40;;;;;;;14.10;1.55;;;;;;;5.17;96.32;98356.59;5074719;28;20035;-41
2022/04/07 05:23:06;;;;;;;14.00;1.63;;;;;;;5.07;98.09;98346.34;5080126;28;20029;-44
2022/04/07 05:25:31;;;;;;;9.63;1.55;;;;;;;4.94;98.92;98332.25;5081823;28;20040;-47
2022/04/07 05:27:56;;;;;;;22.50;2.13;;;;;;;4.91;99.34;98348.66;5092205;28;20035;-43
2022/04/07 05:30:22;;;;;;;39.08;2.75;;;;;;;4.92;100.00;98355.59;5088115;28;20032;-45
2022/04/07 05:32:48;;;;;;;42.28;2.67;;;;;;;4.92;100.00;98356.41;5080652;28;20025;-43
2022/04/07 05:35:14;;;;;;;38.35;2.60;;;;;;;4.90;100.00;98355.84;5080149;28;20040;-44
2022/04/07 05:37:40;;;;;;;36.63;3.88;;;;;;;4.95;100.00;98365.84;5054153;28;20056;-41
2022/04/07 05:40:08;;;;;;;29.25;2.88;;;;;;;4.98;100.00;98350.28;5066731;28;20074;-46
2022/04/07 05:42:33;;;;;;;39.55;4.60;;;;;;;5.05;100.00;98348.44;5075768;28;20032;-43
2022/04/07 05:44:58;;;;;;;28.65;4.55;;;;;;;5.14;100.00;98345.53;5059094;28;20792;-48
2022/04/07 05:47:24;;;;;;;41.10;3.42;;;;;;;5.20;100.00;98340.19;5075578;28;20052;-43
2022/04/07 05:49:49;;;;;;;25.90;2.65;;;;;;;5.26;100.00;98336.66;5078780;28;20456;-44
2022/04/07 05:52:14;;;;;;;42.58;3.95;;;;;;;5.31;100.00;98329.91;5078267;28;20032;-44
2022/04/07 05:54:40;;;;;;;31.42;2.72;;;;;;;5.41;100.00;98335.63;5068154;28;20040;-53
2022/04/07 05:57:05;;;;;;;28.13;2.25;;;;;;;5.45;100.00;98345.66;5078248;28;20036;-45
2022/04/07 05:59:30;;;;;;;26.15;1.90;;;;;;;5.49;100.00;98328.19;5085267;28;20158;-44
2022/04/07 06:01:56;;;;;;;25.80;2.88;;;;;;;5.50;100.00;98337.84;5084157;28;20032;-45
2022/04/07 06:04:21;;;;;;;29.77;3.35;;;;;;;5.53;100.00;98335.78;5080885;28;20032;-46
2022/04/07 06:06:46;;;;;;;35.45;2.95;;;;;;;5.58;100.00;98306.63;5077486;28;20020;-44
2022/04/07 06:09:12;;;;;;;24.95;2.20;;;;;;;5.58;100.00;98306.63;5075524;28;20123;-43
2022/04/07 06:11:37;;;;;;;32.35;3.53;;;;;;;5.60;100.00;98293.88;5078984;28;20047;-51
2022/04/07 06:14:02;;;;;;;25.25;3.47;;;;;;;5.58;100.00;98282.59;5079306;28;20044;-47
2022/04/07 06:16:28;;;;;;;14.98;1.85;;;;;;;5.54;100.00;98279.56;5082328;28;20036;-45
2022/04/07 06:18:54;;;;;;;18.92;2.20;;;;;;;5.50;100.00;98257.81;5082286;28;20082;-43
2022/04/07 06:21:19;;;;;;;15.23;1.75;;;;;;;5.49;100.00;98264.19;5081179;28;20557;-44
2022/04/07 06:23:45;;;;;;;23.10;2.03;;;;;;;5.50;100.00;98271.16;5078865;28;20033;-43
2022/04/07 06:26:10;;;;;;;20.35;1.77;;;;;;;5.53;100.00;98272.59;5063896;28;20020;-46
2022/04/07 06:28:36;;;;;;;19.73;2.20;;;;;;;5.50;100.00;98273.84;5082313;28;20202;-46
2022/04/07 06:31:01;;;;;;;19.80;1.63;;;;;;;5.47;100.00;98260.06;5081741;28;20036;-44
2022/04/07 06:33:26;;;;;;;26.23;2.50;;;;;;;5.49;100.00;98248.16;5079641;28;20105;-44
2022/04/07 06:35:52;;;;;;;17.73;1.63;;;;;;;5.54;100.00;98244.06;5080840;28;20036;-46
2022/04/07 06:38:18;;;;;;;19.20;2.13;;;;;;;5.43;100.00;98240.22;5076518;28;20028;-45
2022/04/07 06:40:44;;;;;;;24.40;1.50;;;;;;;5.48;100.00;98238.53;5090805;28;20032;-46
2022/04/07 06:43:10;;;;;;;18.13;1.73;;;;;;;5.45;100.00;98238.97;5086430;28;20036;-45
2022/04/07 06:45:35;;;;;;;10.10;1.25;;;;;;;5.43;100.00;98221.53;5085848;28;20028;-42
2022/04/07 06:48:00;;;;;;;22.88;3.03;;;;;;;5.38;100.00;98216.03;5076890;28;20423;-43
2022/04/07 06:50:26;;;;;;;19.27;1.90;;;;;;;5.34;100.00;98204.94;5082683;28;20040;-45
2022/04/07 06:52:53;;;;;;;16.73;1.52;;;;;;;5.36;100.00;98194.88;5094234;28;20051;-44
2022/04/07 06:55:18;;;;;;;23.92;2.08;;;;;;;5.37;100.00;98191.22;5095484;28;20020;-45
2022/04/07 06:58:01;;;;;;;9.52;1.35;;;;;;;5.35;100.00;98179.94;5094833;28;20062;-46
2022/04/07 07:00:29;;;;;;;14.52;1.60;;;;;;;5.38;100.00;98182.16;5075449;28;20023;-44
2022/04/07 07:02:56;;;;;;;11.32;1.40;;;;;;;5.39;100.00;98191.78;5080583;28;20076;-44
2022/04/07 07:05:23;;;;;;;13.20;1.70;;;;;;;5.43;100.00;98179.69;5095585;28;20020;-43
2022/04/07 07:07:48;;;;;;;9.65;1.50;;;;;;;5.49;100.00;98178.00;5095453;28;20029;-41
2022/04/07 07:10:20;;;;;;;16.15;2.13;;;;;;;5.57;100.00;98151.06;5095456;28;20029;-40
2022/04/07 07:12:47;;;;;;;9.63;1.40;;;;;;;5.61;100.00;98143.44;5095569;28;20017;-41
2022/04/07 07:15:13;;;;;;;11.32;1.40;;;;;;;5.64;100.00;98140.34;5095474;28;20053;-39
2022/04/07 07:17:39;;;;;;;13.30;1.88;;;;;;;5.69;100.00;98129.84;5095029;28;20039;-36
2022/04/07 07:20:07;;;;;;;12.18;1.63;;;;;;;5.75;100.00;98128.97;5094706;28;20012;-38
2022/04/07 07:22:33;;;;;;;16.98;1.38;;;;;;;5.86;99.59;98130.94;5095279;28;20044;-38
2022/04/07 07:24:58;;;;;;;10.30;1.27;;;;;;;5.98;99.79;98122.22;5098071;28;20044;-40
2022/04/07 07:27:24;;;;;;;7.30;1.30;;;;;;;6.07;98.83;98110.25;5098643;28;20039;-37
2022/04/07 07:29:50;;;;;;;16.40;2.08;;;;;;;6.20;98.64;98120.00;5098542;28;20037;-36
2022/04/07 07:32:15;;;;;;;16.25;1.83;;;;;;;6.26;98.38;98122.56;5098465;28;20032;-39
2022/04/07 07:34:40;;;;;;;15.98;1.50;;;;;;;6.35;98.00;98128.47;5098873;28;20017;-36
2022/04/07 07:37:06;;;;;;;13.90;1.40;;;;;;;6.53;97.94;98111.59;5097602;28;20036;-37
2022/04/07 07:39:31;;;;;;;16.73;2.10;;;;;;;6.82;97.80;98126.09;5099119;28;20021;-35
2022/04/07 07:41:56;;;;;;;10.27;1.50;;;;;;;7.11;95.93;98123.66;5098611;28;20031;-36
2022/04/07 07:44:22;;;;;;;16.02;1.70;;;;;;;7.59;93.04;98120.91;5098360;28;20032;-37
2022/04/07 07:46:47;;;;;;;13.73;2.08;;;;;;;7.98;90.48;98117.81;5098622;28;20025;-37
2022/04/07 07:49:13;;;;;;;9.50;1.30;;;;;;;8.46;88.49;98124.84;5098044;28;20028;-34
2022/04/07 07:51:38;;;;;;;18.95;1.73;;;;;;;8.88;85.06;98119.28;5097674;28;20064;-34
2022/04/07 07:54:04;;;;;;;11.40;1.13;;;;;;;9.31;83.63;98126.81;5098216;28;20031;-36
2022/04/07 07:56:29;;;;;;;15.70;1.83;;;;;;;9.70;82.43;98116.22;5098246;28;20028;-38
2022/04/07 07:58:55;;;;;;;15.43;1.60;;;;;;;9.85;80.14;98137.19;5098297;28;20118;-38
2022/04/07 08:01:20;;;;;;;12.15;1.58;;;;;;;10.24;80.19;98130.00;5097165;28;20028;-39
2022/04/07 08:03:45;;;;;;;16.05;1.58;;;;;;;10.23;79.30;98117.59;5097574;28;20024;-36
2022/04/07 08:06:11;;;;;;;16.45;2.45;;;;;;;10.11;78.64;98114.22;5097638;28;20017;-35
2022/04/07 08:08:36;;;;;;;18.23;1.80;;;;;;;10.77;79.65;98123.22;5097753;28;20024;-36
2022/04/07 08:11:01;;;;;;;16.17;2.78;;;;;;;10.53;77.20;98122.63;5097098;28;20024;-37
2022/04/07 08:13:26;;;;;;;16.38;1.88;;;;;;;10.18;78.83;98125.59;5092948;28;20046;-35
2022/04/07 08:15:52;;;;;;;12.50;1.90;;;;;;;9.76;77.94;98134.06;5093497;28;20032;-37
2022/04/07 08:18:17;;;;;;;14.00;2.53;;;;;;;9.65;80.56;98110.78;5093989;28;20080;-39
2022/04/07 08:20:43;;;;;;;13.07;2.75;;;;;;;9.63;80.74;98131.69;5094490;28;20021;-38
2022/04/07 08:23:08;;;;;;;14.65;1.92;;;;;;;9.50;81.31;98118.56;5093517;28;20029;-35
2022/04/07 08:25:33;;;;;;;12.70;1.95;;;;;;;9.70;79.97;98112.75;5094110;28;20067;-36
2022/04/07 08:27:59;;;;;;;15.88;2.17;;;;;;;10.06;80.97;98119.50;5094616;28;20075;-38
2022/04/07 08:30:24;;;;;;;11.10;1.90;;;;;;;10.50;76.80;98133.06;5095676;28;20028;-35
2022/04/07 08:32:49;;;;;;;19.02;2.38;;;;;;;10.99;73.70;98120.50;5096229;28;20064;-36
2022/04/07 08:35:15;;;;;;;16.52;2.25;;;;;;;11.07;70.71;98121.94;5095009;28;20044;-40
2022/04/07 08:37:40;;;;;;;18.80;2.40;;;;;;;10.80;71.36;98131.88;5094734;28;20052;-38
2022/04/07 08:40:07;;;;;;;17.58;2.53;;;;;;;11.30;71.48;98109.28;5097907;28;20029;-37
2022/04/07 08:42:35;;;;;;;15.23;2.78;;;;;;;11.77;67.18;98103.25;5096150;28;20052;-38
2022/04/07 08:45:01;;;;;;;17.23;2.60;;;;;;;12.43;67.21;98136.13;5097037;28;20047;-37
2022/04/07 08:47:26;;;;;;;17.52;2.60;;;;;;;13.15;64.74;98133.78;5095918;28;20049;-37
2022/04/07 08:49:52;;;;;;;24.83;2.83;;;;;;;13.40;61.12;98141.16;5095444;28;20044;-40
2022/04/07 08:52:18;;;;;;;20.58;2.60;;;;;;;13.34;60.22;98148.44;5095753;28;20020;-40
2022/04/07 08:54:47;;;;;;;16.42;2.65;;;;;;;13.47;60.19;98151.72;5099092;28;20031;-37
2022/04/07 08:57:13;;;;;;;24.92;3.65;;;;;;;13.35;59.95;98141.97;5096101;28;20036;-37
2022/04/07 08:59:39;;;;;;;23.27;3.22;;;;;;;12.99;59.98;98140.19;5097388;28;20020;-37
2022/04/07 09:02:05;;;;;;;20.45;2.50;;;;;;;12.94;60.16;98139.09;5096948;28;20114;-37
2022/04/07 09:04:31;;;;;;;12.13;2.13;;;;;;;12.74;60.00;98157.88;5096599;28;20080;-39
2022/04/07 09:06:58;;;;;;;16.40;2.40;;;;;;;13.30;59.71;98158.16;5097035;28;20036;-35
2022/04/07 09:09:23;;;;;;;21.13;3.43;;;;;;;13.45;58.34;98154.66;5096757;28;20032;-39
2022/04/07 09:11:55;;;;;;;21.92;2.95;;;;;;;13.83;58.77;98144.47;5095538;28;20034;-37
2022/04/07 09:14:20;;;;;;;22.35;3.10;;;;;;;12.85;57.89;98143.38;5096053;28;20012;-37
2022/04/07 09:16:46;;;;;;;21.00;2.63;;;;;;;12.45;60.13;98163.66;5096162;28;20031;-38
2022/04/07 09:19:11;;;;;;;17.38;2.78;;;;;;;11.91;63.21;98162.97;5096591;28;20058;-38
2022/04/07 09:21:37;;;;;;;16.08;2.25;;;;;;;11.93;62.62;98161.63;5096804;28;20031;-39
2022/04/07 09:24:07;;;;;;;25.95;2.95;;;;;;;11.71;62.13;98166.25;5096774;28;20031;-36
2022/04/07 09:26:36;;;;;;;23.63;2.55;;;;;;;11.67;63.87;98184.00;5096467;28;20052;-38
2022/04/07 09:29:12;;;;;;;25.48;3.63;;;;;;;11.01;64.49;98182.19;5096892;28;20060;-38
2022/04/07 09:31:39;;;;;;;27.95;2.78;;;;;;;10.65;65.97;98184.38;5096569;28;20037;-38
2022/04/07 09:34:04;;;;;;;22.58;3.30;;;;;;;10.38;67.72;98194.22;5096840;28;20032;-40
2022/04/07 09:36:30;;;;;;;21.92;2.90;;;;;;;10.45;68.10;98182.22;5096464;28;20094;-35
2022/04/07 09:38:58;;;;;;;29.63;3.13;;;;;;;10.17;67.41;98188.47;5096453;28;20028;-36
2022/04/07 09:41:25;;;;;;;;;;;;;;;9.83;68.71;98183.06;5096743;28;20073;-39
2022/04/07 09:43:58;;;;;;;29.90;3.72;;;;;;;9.80;70.32;98196.19;5112296;28;19965;-37
2022/04/07 09:46:25;;;;;;;23.17;3.03;;;;;;;9.59;69.88;98193.13;5096663;28;20101;-35
2022/04/07 09:49:03;;;;;;;34.67;3.88;;;;;;;9.67;69.79;98199.97;5096241;28;20207;-37
2022/04/07 09:51:37;;;;;;;34.20;3.65;;;;;;;9.75;70.41;98196.91;5096181;28;20040;-36
2022/04/07 09:54:07;;;;;;;29.77;4.10;;;;;;;9.70;70.54;98207.53;5096252;28;20044;-36
2022/04/07 09:56:33;;;;;;;23.60;2.88;;;;;;;9.76;70.02;98203.06;5078801;28;20042;-36
2022/04/07 09:58:58;;;;;;;32.40;4.50;;;;;;;9.83;69.11;98220.69;5078703;28;20024;-37
2022/04/07 10:01:24;;;;;;;23.35;3.53;;;;;;;9.62;69.01;98214.13;5112615;28;20025;-38
2022/04/07 10:03:50;;;;;;;39.33;4.10;;;;;;;9.60;68.52;98207.34;5095953;28;20026;-44
2022/04/07 10:06:16;;;;;;;34.42;3.25;;;;;;;9.68;68.81;98207.78;5096201;28;20080;-38
2022/04/07 10:08:42;;;;;;;25.40;3.42;;;;;;;9.50;68.22;98209.84;5095958;28;20028;-38
2022/04/07 10:11:08;;;;;;;29.73;4.07;;;;;;;9.49;68.38;98213.59;5095834;28;20104;-38
2022/04/07 10:13:36;;;;;;;29.65;4.43;;;;;;;9.29;68.72;98214.81;5096093;28;20072;-36
2022/04/07 10:16:01;;;;;;;;;;;;;;;9.41;70.21;98215.59;5096270;28;20016;-38
2022/04/07 10:18:30;;;;;;;28.88;3.30;;;;;;;9.48;70.02;98212.78;5096001;28;19914;-36
2022/04/07 10:20:57;;;;;;;;;;;;;;;9.53;69.18;98214.72;5112372;28;20021;-34
2022/04/07 10:23:31;;;;;;;39.08;3.72;;;;;;;9.61;68.71;98214.34;5095944;28;19905;-36
2022/04/07 10:25:57;;;;;;;26.52;4.40;;;;;;;9.77;68.28;98221.66;5095843;28;20104;-36
2022/04/07 10:28:24;;;;;;;35.60;3.90;;;;;;;9.74;67.37;98227.50;5096004;28;20027;-39
2022/04/07 10:30:50;;;;;;;30.27;3.67;;;;;;;9.75;67.25;98223.75;5078189;28;20074;-37
2022/04/07 10:33:38;;;;;;;28.92;4.07;;;;;;;10.47;66.78;98231.16;5095734;28;20050;-38
2022/04/07 10:36:09;;;;;;;34.17;3.80;;;;;;;11.01;64.97;98211.78;5095915;28;20055;-38
2022/04/07 10:38:42;;;;;;;34.47;4.28;;;;;;;11.36;63.17;98224.06;5095574;28;20032;-38
2022/04/07 10:41:07;;;;;;;28.02;4.15;;;;;;;11.76;61.41;98230.97;5095433;28;20020;-36
2022/04/07 10:43:38;;;;;;;34.88;5.18;;;;;;;11.70;60.49;98224.72;5078195;28;20074;-37
2022/04/07 10:46:06;;;;;;;35.97;4.45;;;;;;;11.50;61.04;98248.72;5095528;28;20024;-35
2022/04/07 10:48:37;;;;;;;30.50;4.00;;;;;;;11.72;61.20;98241.44;5095434;28;20028;-38
2022/04/07 10:51:08;;;;;;;32.63;4.72;;;;;;;12.06;60.85;98246.66;5094993;28;20051;-37
2022/04/07 10:53:34;;;;;;;28.08;3.58;;;;;;;12.13;59.42;98257.22;5111067;28;20076;-39
2022/04/07 10:56:13;;;;;;;30.58;3.90;;;;;;;12.19;59.54;98256.19;5096244;28;20178;-35
2022/04/07 10:58:46;;;;;;;44.17;4.93;;;;;;;12.30;58.15;98263.34;5091895;28;20028;-39
2022/04/07 11:01:29;;;;;;;31.25;4.22;;;;;;;12.62;58.18;98243.63;5094046;28;20031;-38
2022/04/07 11:04:25;;;;;;;29.38;3.70;;;;;;;12.78;57.43;98247.25;5089263;28;20032;-39
2022/04/07 11:07:10;;;;;;;27.30;3.67;;;;;;;12.59;57.26;98255.75;5075407;28;20025;-38
2022/04/07 11:09:45;;;;;;;29.70;4.85;;;;;;;12.91;56.57;98250.28;5078568;28;20056;-39
2022/04/07 11:12:40;;;;;;;39.25;6.00;;;;;;;13.15;56.48;98252.59;5115766;28;20039;-38
2022/04/07 11:15:05;;;;;;;25.55;4.45;;;;;;;12.72;55.87;98265.28;5097938;28;20020;-37
2022/04/07 11:18:05;;;;;;;35.57;4.23;;;;;;;12.59;57.06;98268.44;5110553;28;20044;-38
2022/04/07 11:20:30;;;;;;;36.40;4.15;;;;;;;12.29;58.22;98264.38;5065340;28;20299;-37
2022/04/07 11:23:09;;;;;;;31.17;4.20;;;;;;;12.44;58.71;98259.13;5097009;28;20171;-38
2022/04/07 11:25:38;;;;;;;35.30;4.47;;;;;;;12.08;58.00;98284.94;5097758;28;20116;-36
2022/04/07 11:28:11;;;;;;;34.63;5.13;;;;;;;11.83;59.19;98274.69;5098064;28;20020;-40
2022/04/07 11:30:38;;;;;;;31.67;4.43;;;;;;;11.67;58.78;98286.38;5115820;28;20015;-35